Time;durP1;ratioP1;P1;durP2;ratioP2;P2;SDS_P1;SDS_P2;PMS_P1;PMS_P2;Temp;Humidity;BMP_temperature;BMP_pressure;BME280_temperature;BME280_humidity;BME280_pressure;Samples;Min_cycle;Max_cycle;Signal;HPM_P1;HPM_P2
2021/07/17 00:04:03;;;;;;;14.13;9.93;;;;;;;20.87;68.89;100772.59;10319534;28;20046;-69
2021/07/17 00:09:21;;;;;;;17.98;10.45;;;;;;;20.80;69.12;100783.31;10317060;28;20136;-70
2021/07/17 00:14:23;;;;;;;13.80;9.70;;;;;;;20.82;69.21;100782.13;10307192;28;20046;-69
2021/07/17 00:19:24;;;;;;;17.30;10.57;;;;;;;20.80;69.13;100789.56;10308793;28;20477;-69
2021/07/17 00:24:26;;;;;;;13.95;10.85;;;;;;;20.56;69.99;100776.97;10312352;28;20050;-70
2021/07/17 00:29:27;;;;;;;17.20;10.70;;;;;;;20.58;69.63;100763.28;10321278;28;20134;-69
2021/07/17 00:34:29;;;;;;;16.58;10.63;;;;;;;20.66;69.85;100760.56;10320477;28;20505;-69
2021/07/17 00:39:30;;;;;;;15.90;10.82;;;;;;;20.58;70.20;100757.88;10311398;28;20057;-70
2021/07/17 00:44:33;;;;;;;14.07;10.45;;;;;;;20.55;69.99;100759.09;10312615;28;20410;-69
2021/07/17 00:49:35;;;;;;;16.17;10.70;;;;;;;20.64;69.63;100763.44;10316457;28;20046;-69
2021/07/17 00:54:39;;;;;;;18.50;12.68;;;;;;;20.70;69.50;100766.47;10306535;28;20081;-70
2021/07/17 00:59:41;;;;;;;14.48;10.85;;;;;;;20.62;69.87;100764.63;10317791;28;20061;-70
2021/07/17 01:04:43;;;;;;;16.00;11.32;;;;;;;20.63;70.19;100763.59;10316524;28;20046;-70
2021/07/17 01:09:45;;;;;;;16.80;11.02;;;;;;;20.65;70.01;100761.56;10313087;28;20077;-69
2021/07/17 01:14:47;;;;;;;17.17;10.15;;;;;;;20.64;70.02;100755.31;10318810;28;20405;-70
2021/07/17 01:19:48;;;;;;;14.00;10.18;;;;;;;20.45;71.15;100759.28;10316098;28;20076;-68
2021/07/17 01:24:51;;;;;;;15.43;10.05;;;;;;;20.55;70.91;100753.69;10316270;28;20626;-69
2021/07/17 01:29:52;;;;;;;11.30;9.65;;;;;;;20.63;70.73;100764.44;10307204;28;20050;-69
2021/07/17 01:34:54;;;;;;;12.23;10.13;;;;;;;20.30;71.99;100750.22;10325410;28;20516;-68
2021/07/17 01:39:55;;;;;;;15.85;10.40;;;;;;;20.44;71.41;100763.00;10311834;28;20057;-69
2021/07/17 01:44:57;;;;;;;10.88;9.15;;;;;;;20.53;70.97;100765.69;10310779;28;20043;-69
2021/07/17 01:49:59;;;;;;;14.88;10.07;;;;;;;20.36;71.69;100762.22;10322325;28;20066;-69
2021/07/17 01:55:04;;;;;;;14.00;10.57;;;;;;;20.45;71.44;100753.88;10314988;28;20077;-70
2021/07/17 02:00:07;;;;;;;12.63;10.57;;;;;;;20.50;71.24;100750.63;10311830;28;20046;-69
2021/07/17 02:05:09;;;;;;;10.43;8.90;;;;;;;20.40;71.37;100739.19;10306806;28;20135;-68
2021/07/17 02:10:22;;;;;;;12.45;10.15;;;;;;;20.29;72.34;100743.97;10312190;28;20074;-69
2021/07/17 02:15:24;;;;;;;11.30;9.63;;;;;;;20.39;71.80;100727.53;10312339;28;20068;-69
2021/07/17 02:20:26;;;;;;;12.90;10.65;;;;;;;20.44;71.74;100730.56;10307700;28;20057;-70
2021/07/17 02:25:28;;;;;;;12.82;10.02;;;;;;;20.35;72.06;100728.91;10301699;28;20466;-69
2021/07/17 02:30:29;;;;;;;12.45;9.57;;;;;;;20.35;72.14;100719.97;10306073;28;21344;-69
2021/07/17 02:35:31;;;;;;;11.50;10.13;;;;;;;20.23;72.67;100738.44;10310115;28;20046;-69
2021/07/17 02:40:33;;;;;;;10.30;8.55;;;;;;;20.31;72.49;100736.53;10304600;28;20046;-68
2021/07/17 02:45:34;;;;;;;13.80;9.88;;;;;;;20.27;72.35;100721.69;10313410;28;20053;-70
2021/07/17 02:50:36;;;;;;;10.05;9.05;;;;;;;20.35;72.22;100730.78;10315264;28;20065;-70
2021/07/17 02:55:37;;;;;;;13.13;8.73;;;;;;;20.39;72.07;100741.06;10322294;28;20046;-70
2021/07/17 03:00:39;;;;;;;11.05;9.15;;;;;;;20.33;72.44;100735.50;10307920;28;20056;-69
2021/07/17 03:05:41;;;;;;;10.20;8.82;;;;;;;20.21;72.72;100743.19;10311259;28;20051;-69
2021/07/17 03:10:42;;;;;;;10.27;8.20;;;;;;;20.02;73.64;100737.16;10311622;28;20061;-69
2021/07/17 03:15:47;;;;;;;13.35;8.93;;;;;;;20.19;73.32;100746.06;10306587;28;20524;-70
2021/07/17 03:20:48;;;;;;;9.35;8.30;;;;;;;19.95;73.71;100734.31;10303910;28;20054;-70
2021/07/17 03:25:50;;;;;;;8.95;8.07;;;;;;;20.10;74.08;100720.91;10306878;28;20059;-71
2021/07/17 03:30:52;;;;;;;12.25;9.07;;;;;;;20.21;73.34;100724.25;10307695;28;20505;-70
2021/07/17 03:35:54;;;;;;;10.48;8.88;;;;;;;20.25;73.28;100736.38;10318378;28;20421;-70
2021/07/17 03:40:55;;;;;;;16.35;8.38;;;;;;;20.28;72.86;100738.72;10318756;28;20046;-70
2021/07/17 03:45:57;;;;;;;10.18;8.52;;;;;;;20.13;73.39;100736.78;10310230;28;20065;-70
2021/07/17 03:50:59;;;;;;;12.43;8.55;;;;;;;20.24;73.10;100732.03;10304862;28;20089;-69
2021/07/17 03:56:01;;;;;;;12.65;7.38;;;;;;;20.25;72.92;100745.34;10311408;28;20050;-69
2021/07/17 04:01:02;;;;;;;9.32;7.95;;;;;;;20.19;72.80;100742.50;10308191;28;20308;-68
2021/07/17 04:06:04;;;;;;;9.38;7.32;;;;;;;20.19;72.96;100731.69;10316729;28;20556;-70
2021/07/17 04:11:06;;;;;;;8.18;6.97;;;;;;;20.16;74.17;100734.72;10312764;28;20065;-70
2021/07/17 04:16:07;;;;;;;9.93;8.60;;;;;;;20.08;72.79;100728.34;10315803;28;20145;-70
2021/07/17 04:21:12;;;;;;;9.63;7.47;;;;;;;20.01;73.59;100730.06;10339130;23;20050;-68
2021/07/17 04:26:13;;;;;;;10.98;7.10;;;;;;;19.84;73.47;100739.22;10318810;28;20084;-69
2021/07/17 04:31:15;;;;;;;9.90;7.20;;;;;;;19.92;73.80;100742.75;10317037;28;20054;-69
2021/07/17 04:36:17;;;;;;;7.80;6.80;;;;;;;19.91;73.55;100741.06;10317862;28;20066;-68
2021/07/17 04:41:18;;;;;;;7.25;6.55;;;;;;;20.01;73.39;100754.41;10317666;28;20062;-69
2021/07/17 04:46:20;;;;;;;7.63;6.93;;;;;;;20.15;72.75;100750.13;10313861;28;20050;-69
2021/07/17 04:51:21;;;;;;;11.80;7.38;;;;;;;20.20;72.67;100768.50;10323076;28;20042;-68
2021/07/17 04:56:23;;;;;;;10.90;7.63;;;;;;;20.23;72.52;100765.47;10318942;28;20057;-69
2021/07/17 05:01:25;;;;;;;8.77;6.85;;;;;;;20.23;72.60;100760.88;10320684;28;20058;-68
2021/07/17 05:06:26;;;;;;;12.27;7.50;;;;;;;20.08;73.52;100765.34;10310904;28;20086;-69
2021/07/17 05:11:28;;;;;;;8.70;6.13;;;;;;;20.06;73.77;100754.69;10314946;28;20707;-68
2021/07/17 05:16:29;;;;;;;8.73;7.15;;;;;;;20.24;72.91;100759.88;10331652;28;20074;-69
2021/07/17 05:21:31;;;;;;;8.05;7.15;;;;;;;20.00;72.68;100752.69;10315345;28;20097;-68
2021/07/17 05:26:33;;;;;;;10.10;6.63;;;;;;;19.93;74.16;100754.41;10313266;28;20050;-69
2021/07/17 05:31:34;;;;;;;8.05;7.13;;;;;;;20.07;73.21;100761.81;10313691;28;20049;-68
2021/07/17 05:36:36;;;;;;;7.70;5.93;;;;;;;20.09;72.97;100762.47;10316724;28;20104;-68
2021/07/17 05:41:38;;;;;;;7.90;5.88;;;;;;;20.17;71.89;100752.66;10311758;28;20055;-69
2021/07/17 05:46:40;;;;;;;6.50;5.70;;;;;;;20.07;72.77;100756.41;10315555;28;20057;-68
2021/07/17 05:51:42;;;;;;;9.50;5.57;;;;;;;20.18;72.56;100757.03;10314279;28;20053;-68
2021/07/17 05:56:44;;;;;;;9.15;6.18;;;;;;;20.31;71.92;100757.31;10317999;28;20053;-68
2021/07/17 06:01:45;;;;;;;9.00;6.13;;;;;;;20.41;71.68;100759.81;10312190;28;21714;-69
2021/07/17 06:06:47;;;;;;;8.18;5.95;;;;;;;20.52;71.05;100770.22;10314263;28;20450;-68
2021/07/17 06:11:49;;;;;;;8.00;6.10;;;;;;;20.62;70.89;100764.63;10316931;28;20048;-68
2021/07/17 06:16:51;;;;;;;9.40;6.78;;;;;;;20.30;71.97;100764.59;10313744;28;20601;-69
2021/07/17 06:21:53;;;;;;;8.45;5.50;;;;;;;20.32;71.25;100769.81;10313971;28;20042;-69
2021/07/17 06:26:55;;;;;;;5.72;5.22;;;;;;;20.41;71.57;100773.34;10320309;28;20125;-69
2021/07/17 06:32:03;;;;;;;7.10;5.32;;;;;;;20.54;70.40;100772.78;10311721;28;20054;-69
2021/07/17 06:37:04;;;;;;;7.18;5.65;;;;;;;20.66;69.84;100782.22;10303874;28;20054;-67
2021/07/17 06:42:06;;;;;;;5.53;4.97;;;;;;;20.58;70.41;100784.91;10294286;28;20061;-69
2021/07/17 06:47:08;;;;;;;5.38;4.88;;;;;;;20.64;70.36;100784.19;10297242;28;20042;-69
2021/07/17 06:52:09;;;;;;;5.32;4.88;;;;;;;20.55;70.42;100794.25;10304481;28;20571;-68
2021/07/17 06:57:11;;;;;;;6.60;5.03;;;;;;;20.81;69.90;100785.84;10298248;28;20047;-68
2021/07/17 07:02:12;;;;;;;5.97;5.10;;;;;;;20.80;68.87;100789.56;10297781;28;20050;-68
2021/07/17 07:07:14;;;;;;;9.80;5.50;;;;;;;20.90;68.45;100778.53;10301667;28;20509;-68
2021/07/17 07:12:16;;;;;;;6.35;4.95;;;;;;;21.08;68.63;100780.94;10313540;28;20827;-67
2021/07/17 07:17:17;;;;;;;5.95;5.22;;;;;;;21.47;66.35;100782.69;10288798;28;20047;-68
2021/07/17 07:22:19;;;;;;;5.30;4.80;;;;;;;21.43;66.45;100781.34;10299734;28;20540;-68
2021/07/17 07:27:21;;;;;;;5.90;5.28;;;;;;;21.17;67.00;100779.03;10296859;28;20054;-68
2021/07/17 07:32:22;;;;;;;8.68;5.72;;;;;;;21.41;66.52;100778.00;10297043;28;20054;-70
2021/07/17 07:37:25;;;;;;;5.50;4.57;;;;;;;21.64;65.87;100787.97;10296879;28;20081;-71
2021/07/17 07:42:26;;;;;;;5.15;4.10;;;;;;;22.01;64.89;100788.97;10293083;28;20548;-71
2021/07/17 07:47:28;;;;;;;7.50;5.35;;;;;;;22.50;64.21;100791.13;10295548;28;20054;-70
2021/07/17 07:52:29;;;;;;;8.25;5.50;;;;;;;22.86;62.73;100798.44;10297025;28;20142;-68
2021/07/17 07:57:31;;;;;;;6.18;5.50;;;;;;;22.81;61.57;100790.06;10295370;28;20453;-68
2021/07/17 08:02:33;;;;;;;7.07;4.82;;;;;;;22.79;63.17;100786.69;10297623;28;20050;-69
2021/07/17 08:07:35;;;;;;;7.10;5.22;;;;;;;22.94;62.56;100787.50;10300308;28;20108;-69
2021/07/17 08:12:36;;;;;;;6.13;5.50;;;;;;;22.88;62.39;100782.84;10294274;28;20059;-70
2021/07/17 08:17:42;;;;;;;6.57;5.88;;;;;;;23.28;62.05;100788.72;10293794;28;20123;-70
2021/07/17 08:22:44;;;;;;;7.43;5.63;;;;;;;23.83;60.40;100783.50;10302687;28;20051;-70
2021/07/17 08:27:45;;;;;;;8.65;5.63;;;;;;;24.30;59.25;100799.31;10301605;28;20043;-69
2021/07/17 08:32:47;;;;;;;5.68;4.53;;;;;;;24.78;58.36;100798.50;10307039;28;20520;-70
2021/07/17 08:37:48;;;;;;;6.57;5.30;;;;;;;25.06;56.61;100790.22;10302994;28;20070;-70
2021/07/17 08:42:51;;;;;;;6.93;5.38;;;;;;;25.05;55.51;100783.91;10303435;28;20513;-69
2021/07/17 08:47:54;;;;;;;5.10;4.60;;;;;;;25.05;56.45;100789.34;10308512;28;20061;-69
2021/07/17 08:52:58;;;;;;;7.03;5.60;;;;;;;25.38;55.65;100772.25;10303089;28;20062;-69
2021/07/17 08:58:03;;;;;;;7.60;5.32;;;;;;;25.17;55.85;100770.53;10305363;28;20057;-70
2021/07/17 09:03:09;;;;;;;5.85;5.05;;;;;;;25.02;56.68;100769.88;10300016;28;20051;-70
2021/07/17 09:08:16;;;;;;;7.22;5.47;;;;;;;25.75;55.29;100750.88;10303294;28;20050;-71
2021/07/17 09:13:23;;;;;;;5.38;4.57;;;;;;;25.96;53.80;100751.66;10303966;28;20587;-68
2021/07/17 09:18:33;;;;;;;6.38;5.70;;;;;;;26.57;52.38;100752.31;10319835;28;20097;-69
2021/07/17 09:23:39;;;;;;;6.90;4.93;;;;;;;26.67;52.59;100752.72;10315366;28;20133;-70
2021/07/17 09:28:41;;;;;;;5.07;4.55;;;;;;;26.42;52.30;100734.34;10302355;28;20046;-70
2021/07/17 09:33:43;;;;;;;6.85;5.10;;;;;;;25.44;54.92;100731.59;10297009;28;20413;-69
2021/07/17 09:38:50;;;;;;;8.45;6.47;;;;;;;26.14;53.75;100739.25;10299441;28;20069;-68
2021/07/17 09:44:04;;;;;;;7.38;5.72;;;;;;;26.39;53.32;100737.50;10288561;28;20050;-69
2021/07/17 09:49:05;;;;;;;6.90;5.82;;;;;;;26.13;53.29;100738.44;10310603;28;20057;-69
2021/07/17 09:54:07;;;;;;;5.63;4.93;;;;;;;26.22;54.63;100734.41;10299195;28;20049;-69
2021/07/17 09:59:12;;;;;;;6.83;5.80;;;;;;;26.52;53.18;100722.94;10297950;28;20051;-70
2021/07/17 10:04:14;;;;;;;6.10;5.50;;;;;;;26.99;52.16;100728.16;10301134;28;20046;-69
2021/07/17 10:09:16;;;;;;;7.18;5.55;;;;;;;27.33;51.77;100715.94;10303283;28;20418;-70
2021/07/17 10:14:26;;;;;;;6.38;5.60;;;;;;;27.81;49.78;100719.06;10298127;28;20061;-70
2021/07/17 10:19:28;;;;;;;10.20;5.75;;;;;;;27.69;49.52;100708.03;10298788;28;20063;-70
2021/07/17 10:24:30;;;;;;;6.67;5.50;;;;;;;27.14;51.35;100698.63;10296105;23;20528;-65
2021/07/17 10:29:32;;;;;;;8.20;5.77;;;;;;;27.49;51.00;100698.16;10272174;28;20050;-64
2021/07/17 10:34:34;;;;;;;6.35;5.55;;;;;;;27.89;50.27;100707.00;10230370;28;20055;-67
2021/07/17 10:39:42;;;;;;;7.80;5.57;;;;;;;28.04;49.30;100697.38;10226905;28;20050;-65
2021/07/17 10:44:52;;;;;;;7.63;5.53;;;;;;;28.61;47.91;100689.94;10227778;28;20059;-66
2021/07/17 10:49:54;;;;;;;6.53;5.93;;;;;;;29.00;47.27;100682.19;10219504;28;20054;-66
2021/07/17 10:55:32;;;;;;;6.45;5.35;;;;;;;29.43;46.97;100694.78;10224741;28;20422;-66
2021/07/17 11:00:54;;;;;;;5.80;5.20;;;;;;;30.04;46.04;100683.50;10228426;28;20185;-65
2021/07/17 11:06:17;;;;;;;5.70;4.85;;;;;;;30.14;45.16;100673.56;10230198;29;20054;-67
2021/07/17 11:11:28;;;;;;;8.37;5.63;;;;;;;29.59;46.15;100666.63;10234329;28;20051;-67
2021/07/17 11:16:47;;;;;;;8.27;5.80;;;;;;;29.60;46.02;100676.50;10233615;29;20058;-65
2021/07/17 11:21:49;;;;;;;5.50;5.00;;;;;;;29.87;45.57;100658.75;10232261;28;20051;-65
2021/07/17 11:27:38;;;;;;;8.73;5.22;;;;;;;29.77;46.03;100667.53;10230508;29;20043;-67
2021/07/17 11:33:03;;;;;;;5.80;5.07;;;;;;;30.15;44.90;100664.25;10208855;29;20059;-65
2021/07/17 11:38:06;;;;;;;5.43;4.90;;;;;;;30.56;43.86;100653.25;10221134;29;20140;-66
2021/07/17 11:43:10;;;;;;;5.40;4.90;;;;;;;29.82;45.25;100643.00;10228444;28;20059;-66
2021/07/17 11:48:14;;;;;;;6.18;5.60;;;;;;;29.34;46.31;100650.44;10229219;29;20129;-66
2021/07/17 11:53:18;;;;;;;5.47;4.97;;;;;;;29.50;46.62;100648.88;10232528;28;20055;-66
2021/07/17 11:58:20;;;;;;;10.25;5.70;;;;;;;29.37;47.09;100638.16;10223392;28;20062;-67
2021/07/17 12:03:21;;;;;;;6.53;5.23;;;;;;;28.83;47.16;100632.72;10221258;28;20419;-66
2021/07/17 12:08:23;;;;;;;6.53;5.93;;;;;;;28.53;48.81;100639.06;10227995;28;20059;-66
2021/07/17 12:13:25;;;;;;;6.47;5.17;;;;;;;28.35;49.12;100643.50;10227106;28;20043;-66
2021/07/17 12:18:27;;;;;;;;;;;;;;;28.37;48.80;100646.88;10227615;28;20321;-66
2021/07/17 12:23:28;;;;;;;5.85;5.25;;;;;;;27.89;49.19;100627.69;10229523;28;19934;-67
2021/07/17 12:28:40;;;;;;;4.77;4.37;;;;;;;27.75;50.08;100644.25;10231720;28;20043;-65
2021/07/17 12:33:44;;;;;;;5.55;5.07;;;;;;;27.79;50.49;100639.13;10231550;28;20311;-66
2021/07/17 12:38:48;;;;;;;5.63;5.13;;;;;;;27.67;50.09;100650.84;10231228;28;20062;-67
2021/07/17 12:44:00;;;;;;;6.25;5.30;;;;;;;27.74;49.70;100639.81;10229141;28;20053;-65
2021/07/17 12:49:10;;;;;;;6.65;6.05;;;;;;;27.64;50.06;100642.28;10228873;28;20562;-65
2021/07/17 12:54:23;;;;;;;6.10;5.55;;;;;;;27.52;50.52;100639.47;10226918;28;20051;-65
2021/07/17 12:59:32;;;;;;;6.30;5.70;;;;;;;27.65;51.02;100636.59;10227174;28;20055;-65
2021/07/17 13:04:33;;;;;;;5.82;5.32;;;;;;;28.37;49.97;100616.75;10229702;28;20069;-64
2021/07/17 13:09:38;;;;;;;6.90;6.20;;;;;;;28.37;49.83;100624.97;10225725;28;20047;-67
2021/07/17 13:14:42;;;;;;;6.05;5.43;;;;;;;28.20;50.30;100624.75;10231595;28;20119;-67
2021/07/17 13:19:44;;;;;;;6.50;6.00;;;;;;;27.90;50.37;100619.25;10265097;28;20146;-65
2021/07/17 13:24:47;;;;;;;7.57;6.43;;;;;;;27.97;51.26;100616.44;10234001;28;20052;-65
2021/07/17 13:29:50;;;;;;;6.18;5.55;;;;;;;27.79;51.41;100612.66;10228430;28;20062;-64
2021/07/17 13:34:51;;;;;;;6.82;6.22;;;;;;;27.76;50.74;100618.56;10228779;28;20063;-65
2021/07/17 13:39:55;;;;;;;8.47;6.20;;;;;;;27.81;48.49;100620.63;10227803;28;20399;-65
2021/07/17 13:45:11;;;;;;;6.72;6.13;;;;;;;27.83;48.94;100611.13;10226789;28;20054;-66
2021/07/17 13:50:18;;;;;;;9.05;6.78;;;;;;;28.05;48.88;100618.88;10224645;28;20059;-66
2021/07/17 13:55:32;;;;;;;7.75;6.88;;;;;;;28.35;48.71;100616.13;10221063;28;20506;-65
2021/07/17 14:00:46;;;;;;;6.88;6.18;;;;;;;28.82;48.49;100609.13;10221247;28;20069;-65
2021/07/17 14:05:54;;;;;;;7.18;6.47;;;;;;;28.81;48.04;100608.31;10225109;28;20114;-67
2021/07/17 14:10:57;;;;;;;7.63;6.75;;;;;;;29.10;48.14;100602.97;10211937;28;20756;-65
2021/07/17 14:15:59;;;;;;;7.60;6.80;;;;;;;29.17;46.44;100606.44;10213425;28;20525;-64
2021/07/17 14:21:02;;;;;;;6.22;5.45;;;;;;;28.81;47.75;100597.34;10213059;28;20051;-66
2021/07/17 14:26:05;;;;;;;6.45;5.82;;;;;;;28.98;47.96;100585.69;10219775;28;20043;-65
2021/07/17 14:31:07;;;;;;;6.90;6.30;;;;;;;28.94;47.75;100589.97;10219310;28;20059;-65
2021/07/17 14:36:11;;;;;;;7.15;6.45;;;;;;;29.13;47.63;100580.56;10218173;28;20055;-65
2021/07/17 14:41:12;;;;;;;7.18;6.47;;;;;;;29.30;47.15;100567.00;10226191;28;20560;-65
2021/07/17 14:46:14;;;;;;;8.07;6.47;;;;;;;29.39;46.46;100567.47;10228461;29;20505;-65
2021/07/17 14:51:17;;;;;;;6.68;6.07;;;;;;;29.33;45.98;100565.69;10229739;28;20836;-64
2021/07/17 14:56:19;;;;;;;7.30;6.63;;;;;;;29.36;45.39;100559.72;10224651;28;20333;-65
2021/07/17 15:01:21;;;;;;;6.75;6.10;;;;;;;29.40;45.88;100564.47;10218631;28;20058;-65
2021/07/17 15:06:23;;;;;;;7.38;6.68;;;;;;;29.35;46.28;100569.84;10227645;28;20383;-65
2021/07/17 15:11:25;;;;;;;7.03;6.43;;;;;;;29.05;46.32;100559.84;10223036;28;20058;-65
2021/07/17 15:16:26;;;;;;;7.73;6.97;;;;;;;28.93;47.27;100561.75;10227164;28;20402;-65
2021/07/17 15:21:29;;;;;;;8.43;7.03;;;;;;;28.71;47.52;100553.28;10227520;28;20435;-66
2021/07/17 15:26:33;;;;;;;7.55;6.75;;;;;;;28.62;48.43;100554.69;10237612;28;20051;-65
2021/07/17 15:31:35;;;;;;;8.20;7.07;;;;;;;28.61;48.61;100553.03;10231539;28;20062;-65
2021/07/17 15:36:42;;;;;;;8.27;7.47;;;;;;;28.37;49.28;100550.19;10233278;28;20130;-66
2021/07/17 15:41:45;;;;;;;8.73;7.20;;;;;;;28.30;49.62;100557.69;10228316;28;20048;-65
2021/07/17 15:46:47;;;;;;;8.35;7.47;;;;;;;28.21;50.24;100571.72;10230273;28;20052;-65
2021/07/17 15:51:49;;;;;;;8.47;7.67;;;;;;;27.89;50.99;100556.56;10227399;28;20229;-65
2021/07/17 15:56:50;;;;;;;7.80;7.00;;;;;;;27.81;49.00;100566.75;10227920;28;20940;-65
2021/07/17 16:01:52;;;;;;;6.93;5.82;;;;;;;27.79;47.62;100574.34;10231377;28;20082;-65
2021/07/17 16:06:54;;;;;;;6.20;5.60;;;;;;;27.73;47.94;100569.81;10229628;28;20070;-65
2021/07/17 16:11:55;;;;;;;6.03;5.40;;;;;;;27.82;47.51;100573.06;10232172;28;20605;-65
2021/07/17 16:16:58;;;;;;;;;;;;;;;27.88;47.23;100566.69;10230977;28;20493;-66
2021/07/17 16:21:59;;;;;;;6.60;6.00;;;;;;;27.95;46.01;100556.47;10228050;28;19952;-66
2021/07/17 16:27:02;;;;;;;5.82;5.07;;;;;;;27.93;46.23;100558.59;10322213;22;20050;-72
2021/07/17 16:32:04;;;;;;;6.68;6.07;;;;;;;27.87;46.44;100562.25;10318213;28;20060;-72
2021/07/17 16:37:06;;;;;;;6.30;5.70;;;;;;;27.79;47.42;100562.56;10291090;28;20648;-70
2021/07/17 16:42:07;;;;;;;7.05;5.88;;;;;;;27.68;47.56;100556.84;10282600;28;20054;-71
2021/07/17 16:47:09;;;;;;;7.40;5.88;;;;;;;27.65;48.44;100561.91;10289811;28;20055;-70
2021/07/17 16:52:10;;;;;;;6.30;5.70;;;;;;;27.56;49.07;100552.34;10295696;28;20070;-71
2021/07/17 16:57:12;;;;;;;7.00;6.40;;;;;;;27.60;49.76;100559.03;10300443;28;20433;-70
2021/07/17 17:02:14;;;;;;;8.65;6.05;;;;;;;27.46;49.85;100570.13;10288676;28;20051;-70
2021/07/17 17:07:16;;;;;;;7.13;6.43;;;;;;;27.20;50.62;100562.19;10292407;28;20112;-69
2021/07/17 17:12:17;;;;;;;7.03;6.23;;;;;;;27.05;51.52;100574.28;10293295;28;20917;-70
2021/07/17 17:17:19;;;;;;;7.80;6.83;;;;;;;26.89;52.03;100564.78;10288740;28;20070;-69
2021/07/17 17:22:23;;;;;;;7.50;6.80;;;;;;;26.80;52.78;100577.88;10286434;28;20059;-69
2021/07/17 17:27:24;;;;;;;8.77;6.90;;;;;;;26.79;53.50;100581.66;10292888;28;20062;-69
2021/07/17 17:32:26;;;;;;;8.80;6.87;;;;;;;26.71;53.75;100581.97;10289781;28;20055;-69
2021/07/17 17:37:28;;;;;;;8.03;7.00;;;;;;;26.63;54.56;100587.66;10287597;28;20042;-68
2021/07/17 17:42:29;;;;;;;8.98;7.60;;;;;;;26.48;54.82;100589.88;10290365;28;20057;-68
2021/07/17 17:47:31;;;;;;;4.68;3.75;;;;;;;26.36;57.54;100597.91;10277768;28;20057;-70
2021/07/17 17:52:33;;;;;;;9.10;6.93;;;;;;;26.17;55.64;100591.53;10281071;28;20426;-72
2021/07/17 17:57:35;;;;;;;10.55;8.30;;;;;;;26.12;55.74;100611.25;10287986;28;20055;-70
2021/07/17 18:02:39;;;;;;;12.10;7.50;;;;;;;26.08;55.28;100613.59;10288495;28;20452;-70
2021/07/17 18:07:41;;;;;;;10.20;7.97;;;;;;;25.98;55.75;100601.47;10284955;28;20104;-72
2021/07/17 18:12:44;;;;;;;8.50;7.70;;;;;;;25.86;54.89;100604.03;10286593;28;20062;-70
2021/07/17 18:17:47;;;;;;;9.40;7.72;;;;;;;25.82;55.37;100613.69;10300430;28;20310;-70
2021/07/17 18:22:49;;;;;;;9.57;6.07;;;;;;;25.71;55.57;100618.75;10295773;28;20052;-70
2021/07/17 18:27:51;;;;;;;9.33;7.47;;;;;;;25.65;55.63;100619.63;10297144;28;20043;-70
2021/07/17 18:32:52;;;;;;;13.40;10.90;;;;;;;25.58;55.29;100616.06;10294870;28;20057;-72
2021/07/17 18:37:55;;;;;;;7.28;6.57;;;;;;;25.51;54.66;100615.25;10304765;28;20067;-69
2021/07/17 18:42:57;;;;;;;10.77;8.47;;;;;;;25.26;55.00;100605.00;10285292;28;20066;-70
2021/07/17 18:48:00;;;;;;;10.27;6.53;;;;;;;25.29;55.18;100615.47;10283999;28;20312;-70
2021/07/17 18:53:03;;;;;;;;;;;;;;;25.35;55.62;100619.28;10283767;28;20061;-70
2021/07/17 18:58:04;;;;;;;8.60;5.10;;;;;;;25.25;55.07;100614.22;10288630;28;20130;-70
2021/07/17 19:03:06;;;;;;;7.78;6.32;;;;;;;25.15;55.52;100619.28;10288365;28;20057;-70
2021/07/17 19:08:07;;;;;;;10.35;5.88;;;;;;;25.09;56.01;100625.56;10279946;28;20500;-70
2021/07/17 19:13:09;;;;;;;7.50;5.05;;;;;;;24.98;56.44;100630.59;10290818;28;20051;-69
2021/07/17 19:18:11;;;;;;;9.32;6.63;;;;;;;24.96;56.73;100632.66;10288126;28;20050;-69
2021/07/17 19:23:12;;;;;;;7.63;5.45;;;;;;;24.90;56.93;100630.78;10282174;28;20062;-70
2021/07/17 19:28:14;;;;;;;8.13;5.32;;;;;;;24.84;57.24;100637.06;10292717;28;20050;-70
2021/07/17 19:33:16;;;;;;;9.75;4.80;;;;;;;24.77;57.06;100642.53;10290603;28;20046;-70
2021/07/17 19:38:18;;;;;;;7.88;5.25;;;;;;;24.57;57.49;100645.16;10284835;28;20445;-69
2021/07/17 19:43:19;;;;;;;7.47;5.50;;;;;;;24.46;58.30;100649.34;10282592;28;20051;-70
2021/07/17 19:48:21;;;;;;;6.20;5.30;;;;;;;24.49;58.26;100669.84;10286068;28;20053;-69
2021/07/17 19:53:23;;;;;;;8.30;5.88;;;;;;;24.41;58.86;100654.56;10276395;28;20053;-70
2021/07/17 19:58:25;;;;;;;7.57;5.78;;;;;;;24.25;58.07;100663.91;10286250;28;20535;-70
2021/07/17 20:03:26;;;;;;;8.48;5.43;;;;;;;24.17;58.97;100672.28;10274468;28;20058;-70
2021/07/17 20:08:28;;;;;;;7.72;4.72;;;;;;;24.13;59.76;100682.69;10287081;28;20129;-70
2021/07/17 20:13:29;;;;;;;11.02;5.07;;;;;;;23.99;59.23;100681.81;10288989;28;20574;-69
2021/07/17 20:18:31;;;;;;;5.72;4.80;;;;;;;23.98;60.23;100685.56;10290538;28;20468;-70
2021/07/17 20:23:33;;;;;;;8.18;4.65;;;;;;;23.89;59.62;100685.94;10286460;28;20051;-70
2021/07/17 20:28:34;;;;;;;5.25;3.65;;;;;;;23.85;59.79;100692.78;10290639;28;20250;-69
2021/07/17 20:33:36;;;;;;;5.15;3.67;;;;;;;23.80;59.64;100687.94;10297412;28;20413;-69
2021/07/17 20:38:39;;;;;;;5.82;3.55;;;;;;;23.78;59.63;100695.44;10288658;28;20436;-69
2021/07/17 20:43:41;;;;;;;7.15;3.08;;;;;;;23.67;59.45;100694.13;10279148;28;20513;-70
2021/07/17 20:48:43;;;;;;;6.32;3.88;;;;;;;23.54;59.79;100694.03;10291361;28;20053;-69
2021/07/17 20:53:44;;;;;;;7.03;3.80;;;;;;;23.39;60.38;100685.97;10292499;28;20057;-69
2021/07/17 20:58:46;;;;;;;9.95;4.95;;;;;;;23.37;60.12;100691.63;10291223;28;20052;-68
2021/07/17 21:03:48;;;;;;;7.47;4.72;;;;;;;23.29;60.36;100681.75;10286496;28;20050;-69
2021/07/17 21:08:49;;;;;;;6.78;3.85;;;;;;;23.22;60.66;100674.59;10285117;28;20050;-69
2021/07/17 21:13:51;;;;;;;3.88;2.78;;;;;;;23.13;60.38;100682.03;10292852;28;20074;-68
2021/07/17 21:18:53;;;;;;;7.63;2.90;;;;;;;22.99;60.39;100694.63;10294380;28;20054;-68
2021/07/17 21:23:55;;;;;;;6.38;2.67;;;;;;;22.98;60.20;100686.66;10284041;28;20588;-69
2021/07/17 21:28:56;;;;;;;5.78;2.28;;;;;;;22.77;59.82;100688.34;10287006;28;20054;-68
2021/07/17 21:33:58;;;;;;;5.82;2.30;;;;;;;22.84;59.16;100691.13;10286463;28;20059;-68
2021/07/17 21:38:59;;;;;;;3.28;1.90;;;;;;;22.85;57.92;100695.50;10290983;28;20054;-68
2021/07/17 21:44:01;;;;;;;4.43;1.80;;;;;;;22.84;58.24;100697.41;10300216;28;20062;-68
2021/07/17 21:49:03;;;;;;;3.97;2.22;;;;;;;22.81;57.46;100695.06;10287839;28;20058;-68
2021/07/17 21:54:07;;;;;;;2.90;1.27;;;;;;;22.73;57.56;100703.34;10292496;28;20058;-68
2021/07/17 21:59:08;;;;;;;3.45;1.60;;;;;;;22.69;57.59;100696.63;10286687;28;20069;-68
2021/07/17 22:04:10;;;;;;;4.47;1.92;;;;;;;22.64;57.47;100705.34;10293897;28;20051;-68
2021/07/17 22:09:12;;;;;;;5.57;1.90;;;;;;;22.60;57.69;100707.56;10285159;28;20200;-69
2021/07/17 22:14:13;;;;;;;3.80;1.80;;;;;;;22.49;57.28;100694.53;10296394;28;21232;-71
2021/07/17 22:19:15;;;;;;;2.97;1.60;;;;;;;22.38;57.06;100704.00;10275742;28;20054;-68
2021/07/17 22:24:17;;;;;;;5.00;2.25;;;;;;;22.27;57.99;100701.75;10304618;22;21728;-51
2021/07/17 22:29:18;;;;;;;4.05;1.58;;;;;;;22.23;57.14;100701.28;10301284;28;20499;-52
2021/07/17 22:34:20;;;;;;;4.00;1.35;;;;;;;22.20;57.56;100698.09;10306167;28;20062;-49
2021/07/17 22:39:25;;;;;;;5.75;2.22;;;;;;;22.12;57.70;100696.34;10309877;28;20093;-50
2021/07/17 22:44:26;;;;;;;2.97;1.40;;;;;;;22.14;57.42;100704.28;10301635;28;20250;-50
2021/07/17 22:49:28;;;;;;;4.15;1.80;;;;;;;22.09;56.66;100701.31;10320261;28;20045;-51
2021/07/17 22:54:29;;;;;;;4.22;1.65;;;;;;;22.06;56.77;100702.50;10299096;28;20058;-48
2021/07/17 22:59:31;;;;;;;4.53;2.15;;;;;;;21.96;56.71;100702.78;10309903;28;20061;-51
2021/07/17 23:04:33;;;;;;;4.10;2.15;;;;;;;21.86;56.66;100700.38;10308870;28;20506;-50
2021/07/17 23:09:34;;;;;;;3.53;1.73;;;;;;;21.82;56.35;100704.47;10304422;28;20053;-51